x

Central Aleutians 230nm Sw Dutch Harbor (46072) Wave Buoy

5:50 - Sun 24th May 2015 All times are UTC.

  • Sig Wave height 16.1ft
  • Peak Period 12s
  • Average Period 8s
  • Wind
    27mph, 36mph gusts
  • Sea Temp 43°f
  • Luft Temp 43°f
  • Sea Pressure 998.9mb

More Historic Weather Station data

Upgrade to MSW Pro to gain access to the past 30 days of data for over 8000 Wavebouys and Weather Stations around the globe.

Join Pro

Comparision Forecast

View Surf forecast
   
So 05/24 5:50 16ft 12s 8s 27 36 mph 998.9mb 43f 43f
4:50 16ft 12s 8s 27 34 mph 998.4mb 43f 42f
3:50 16.5ft 13s 8s 29 36 mph 997.7mb 43f 43f
2:50 16ft 11s 7s 31 38 mph 997.5mb 43f 43f
1:50 16ft 11s 7s 31 38 mph 997.3mb 43f 43f
12:50 16ft 11s 7s 31 40 mph 997mb 43f 42f
Sa 05/23 11:50 15ft 11s 7s 27 34 mph 996.7mb 43f 42f
10:50 16.5ft 11s 8s 27 36 mph 996.4mb 43f 42f
9:50 15ft 11s 8s 25 31 mph 996mb 43f 42f
8:50 15.5ft 12s 8s 29 36 mph 995.7mb 43f 42f
7:50 14.5ft 12s 8s 27 31 mph 995.5mb 43f 42f
6:50 15ft 9s 8s 25 29 mph 995.4mb 43f 42f
5:50 15ft 11s 8s 27 31 mph 995.4mb 43f 42f
4:50 14ft 11s 7s 25 31 mph 995.2mb 43f 42f
3:50 14ft 11s 7s 25 29 mph 994.8mb 43f 43f
2:50 15ft 11s 7s 25 29 mph 994.5mb 43f 43f
1:50 15ft 11s 8s 25 34 mph 994mb 43f 43f
12:50 14.5ft 11s 7s 27 31 mph 993.5mb 43f 43f
11:50 15ft 11s 7s 27 34 mph 993mb 43f 41f
10:50 13.5ft 9s 7s 27 31 mph 992.4mb 43f 43f
9:50 14ft 11s 7s 27 34 mph 991.9mb 43f 43f
8:50 15ft 11s 7s 27 34 mph 991.5mb 43f 43f
7:50 14ft 11s 7s 27 31 mph 990.9mb 43f 42f
6:50 13ft 11s 7s 27 34 mph 990mb 43f 43f
5:50 12.5ft 11s 7s 25 31 mph 989.3mb 43f 43f
4:50 14ft 11s 8s 27 31 mph 988.6mb 43f 43f
3:50 15.5ft 11s 8s 22 29 mph 988.1mb 43f 44f
2:50 13.5ft 11s 8s 22 27 mph 987.6mb 43f 44f
1:50 15.5ft 11s 8s 20 27 mph 987.1mb 43f 43f
12:50 15ft 11s 8s 20 22 mph 986.4mb 43f 43f
Fr 05/22 11:50 16ft 11s 8s 16 20 mph 986.1mb 43f 43f
10:50 15.5ft 11s 8s 18 25 mph 986.1mb 43f 43f
9:50 16.5ft 11s 8s 18 22 mph 986mb 43f 43f
8:50 17.5ft 11s 8s 22 27 mph 986.1mb 43f 43f
7:50 18ft 11s 8s 27 34 mph 986.6mb 43f 43f
6:50 16.5ft 11s 7s 31 38 mph 987.3mb 43f 43f
5:50 18.5ft 9s 7s 36 45 mph 988.7mb 43f 42f
4:50 19.5ft 8s 7s 40 47 mph 989.6mb 43f 42f
3:50 17ft 8s 7s 40 49 mph 990.6mb 43f 42f
2:50 15.5ft 9s 7s 40 49 mph 992.8mb 43f 42f
1:50 16.5ft 8s 7s 36 47 mph 996.3mb 43f 41f
12:50 14.5ft 8s 6s 38 47 mph 997.2mb 43f 41f
11:50 12ft 8s 6s 36 45 mph 999.5mb 43f 41f
10:50 12ft 8s 6s 38 45 mph 1001.9mb 43f 41f
9:50 10ft 7s 5s 34 43 mph 1004.3mb 43f 41f
8:50 9ft 6s 5s 34 43 mph 1005.7mb 43f 41f
7:50 8ft 6s 5s 31 38 mph 1007.8mb 44f 42f
6:50 7ft 6s 5s 29 36 mph 1009mb 44f 42f
5:50 6.5ft 5s 5s 29 36 mph 1010.2mb 44f 42f
4:50 6ft 5s 5s 27 31 mph 1011.7mb 44f 42f
3:50 5ft 9s 5s 22 27 mph 1013.4mb 44f 42f
2:50 5ft 9s 5s 22 27 mph 1014.3mb 44f 42f
1:50 5ft 9s 5s 22 25 mph 1015.3mb 44f 42f
12:50 5ft 9s 5s 20 22 mph 1016mb 44f 42f
Do 05/21 11:50 5.5ft 9s 6s 16 20 mph 1017mb 44f 42f
10:50 5.5ft 10s 6s 13 16 mph 1017.8mb 44f 42f
9:50 6ft 10s 7s 11 13 mph 1018.3mb 44f 42f
8:50 6ft 8s 7s 7 9 mph 1019mb 44f 42f
7:50 6ft 10s 7s 7 9 mph 1019.3mb 43f 42f
6:50 6ft 10s 7s 4 7 mph 1019.8mb 43f 41f
5:50 6ft 10s 7s 7 9 mph 1019.9mb 43f 41f
4:50 6ft 9s 7s 4 7 mph 1019.8mb 43f 41f
3:50 6ft 10s 6s 7 9 mph 1019.8mb 43f 40f
2:50 6ft 11s 6s 4 9 mph 1019.6mb 43f 41f
1:50 6.5ft 10s 6s 11 13 mph 1019.3mb 43f 41f
12:50 7ft 11s 6s 9 11 mph 1019mb 43f 41f
11:50 7ft 6s 6s 11 13 mph 1019.5mb 43f 41f
10:50 8ft 8s 6s 13 16 mph 1019.4mb 43f 41f
9:50 8ft 8s 6s 16 18 mph 1018.9mb 43f 41f
8:50 8ft 9s 6s 16 18 mph 1018.7mb 43f 41f
7:50 8ft 8s 6s 22 25 mph 1018mb 43f 41f
6:50 9ft 9s 7s 20 25 mph 1017.2mb 43f 41f
5:50 8.5ft 9s 6s 22 27 mph 1016.3mb 43f 41f
4:50 10ft 9s 7s 20 25 mph 1015.7mb 43f 41f
3:50 10ft 9s 7s 22 29 mph 1015.3mb 43f 42f
2:50 11.5ft 9s 7s 27 31 mph 1014.5mb 43f 41f
1:50 12ft 10s 7s 27 31 mph 1013.9mb 43f 41f
12:50 11ft 10s 6s 29 36 mph 1013.1mb 43f 41f
Mi 05/20 11:50 12ft 10s 6s 27 36 mph 1012mb 43f 42f
10:50 11ft 9s 6s 27 34 mph 1010.9mb 43f 41f
9:50 11ft 10s 6s 29 34 mph 1009.8mb 43f 41f
8:50 12ft 8s 6s 29 36 mph 1008.7mb 43f 41f
7:50 10ft 7s 6s 29 36 mph 1008.1mb 43f 41f
6:50 10.5ft 10s 6s 29 36 mph 1007.2mb 43f 41f
5:50 9ft 10s 6s 29 36 mph 1006.1mb 43f 41f
4:50 8ft 10s 6s 29 36 mph 1004.8mb 43f 41f
3:50 8ft 11s 6s 29 34 mph 1003.8mb 44f 42f
2:50 7.5ft 11s 6s 25 29 mph 1002.8mb 44f 42f
1:50 7ft 11s 6s 22 25 mph 1002.1mb 43f 43f
12:50 8ft 10s 6s 20 22 mph 1001.4mb 43f 43f
11:50 8ft 11s 6s 18 22 mph 1000.9mb 43f 43f
10:50 8ft 10s 7s 18 20 mph 1000.4mb 43f 42f
9:50 8ft 10s 7s 18 20 mph 999.8mb 44f 42f
8:50 9ft 11s 7s 16 18 mph 999.3mb 44f 43f
7:50 8ft 11s 7s 16 18 mph 998.7mb 44f 43f